createdAt,value
2022-10-18T00:04:04.002Z,101243.75
2022-10-18T00:09:05.519Z,101253.38
2022-10-18T00:14:07.218Z,101253.88
2022-10-18T00:19:08.703Z,101246.41
2022-10-18T00:24:10.176Z,101254.13
2022-10-18T00:29:14.690Z,101246.00
2022-10-18T00:34:16.857Z,101242.78
2022-10-18T00:39:20.920Z,101262.03
2022-10-18T00:44:25.243Z,101256.41
2022-10-18T00:49:40.882Z,101253.53
2022-10-18T00:54:45.107Z,101245.56
2022-10-18T00:59:47.454Z,101246.13
2022-10-18T01:04:48.995Z,101247.69
2022-10-18T01:10:00.362Z,101245.63
2022-10-18T01:15:28.567Z,101261.69
2022-10-18T01:20:45.249Z,101243.59
2022-10-18T01:25:52.081Z,101236.69
2022-10-18T01:31:03.634Z,101237.81
2022-10-18T01:36:08.332Z,101228.03
2022-10-18T01:41:15.756Z,101236.41
2022-10-18T01:46:22.158Z,101230.59
2022-10-18T01:51:29.200Z,101226.66
2022-10-18T01:56:38.214Z,101225.34
2022-10-18T02:02:01.140Z,101218.59
2022-10-18T02:07:41.015Z,101217.00
2022-10-18T02:12:44.909Z,101216.41
2022-10-18T02:17:47.265Z,101215.44
2022-10-18T02:22:50.654Z,101203.69
2022-10-18T02:27:52.513Z,101201.75
2022-10-18T02:33:04.052Z,101195.97
2022-10-18T02:38:08.058Z,101189.09
2022-10-18T02:43:09.519Z,101187.44
2022-10-18T02:48:10.991Z,101186.75
2022-10-18T02:53:12.428Z,101191.41
2022-10-18T02:58:14.720Z,101190.03
2022-10-18T03:03:16.170Z,101195.56
2022-10-18T03:08:18.181Z,101198.41
2022-10-18T03:13:19.696Z,101200.63
2022-10-18T03:18:21.180Z,101207.38
2022-10-18T03:23:22.625Z,101207.59
2022-10-18T03:28:24.071Z,101212.78
2022-10-18T03:33:25.599Z,101220.56
2022-10-18T03:38:27.208Z,101220.81
2022-10-18T03:43:28.644Z,101219.13
2022-10-18T03:48:30.129Z,101229.38
2022-10-18T03:53:31.588Z,101231.94
2022-10-18T04:03:35.361Z,101237.81
2022-10-18T04:08:36.792Z,101246.94
2022-10-18T04:13:38.802Z,101251.84
2022-10-18T04:18:40.251Z,101257.25
2022-10-18T04:23:41.813Z,101260.88
2022-10-18T04:28:44.152Z,101256.44
2022-10-18T04:33:45.575Z,101247.38
2022-10-18T04:38:46.995Z,101253.78
2022-10-18T04:43:48.692Z,101249.94
2022-10-18T04:48:50.091Z,101250.38
2022-10-18T04:53:51.595Z,101255.34
2022-10-18T04:58:53.026Z,101256.34
2022-10-18T05:03:55.363Z,101256.63
2022-10-18T05:08:57.003Z,101262.94
2022-10-18T05:13:58.491Z,101262.09
2022-10-18T05:18:59.887Z,101259.59
2022-10-18T05:24:01.404Z,101253.69
2022-10-18T05:29:03.818Z,101258.75
2022-10-18T05:34:05.433Z,101261.72
2022-10-18T05:39:06.901Z,101254.38
2022-10-18T05:44:08.363Z,101256.66
2022-10-18T05:49:12.623Z,101260.59
2022-10-18T05:54:14.274Z,101250.88
2022-10-18T05:59:15.796Z,101244.78
2022-10-18T06:04:17.941Z,101244.06
2022-10-18T06:09:19.443Z,101250.91
2022-10-18T06:14:20.901Z,101255.59
2022-10-18T06:19:23.640Z,101257.72
2022-10-18T06:24:25.273Z,101263.53
2022-10-18T06:29:26.917Z,101279.66
2022-10-18T06:34:28.344Z,101288.03
2022-10-18T06:39:29.895Z,101294.06
2022-10-18T06:44:31.637Z,101303.16
2022-10-18T06:49:33.087Z,101305.13
2022-10-18T06:54:34.612Z,101324.25
2022-10-18T06:59:36.089Z,101330.16
2022-10-18T07:04:37.606Z,101327.19
2022-10-18T07:09:39.163Z,101334.59
2022-10-18T07:14:40.886Z,101341.19
2022-10-18T07:19:42.434Z,101348.69
2022-10-18T07:24:44.039Z,101354.06
2022-10-18T07:29:45.515Z,101349.47
2022-10-18T07:34:47.031Z,101365.69
2022-10-18T07:39:48.472Z,101382.16
2022-10-18T07:44:50.005Z,101391.44
2022-10-18T07:49:51.664Z,101377.84
2022-10-18T07:54:53.225Z,101400.13
2022-10-18T07:59:57.027Z,101407.31
2022-10-18T08:04:58.477Z,101408.94
2022-10-18T08:09:59.963Z,101391.25
2022-10-18T08:15:01.511Z,101401.69
2022-10-18T08:20:12.449Z,101390.53
2022-10-18T08:25:25.060Z,101385.69
2022-10-18T08:30:26.572Z,101377.31
2022-10-18T08:35:28.150Z,101381.88
2022-10-18T08:40:30.988Z,101381.53
2022-10-18T08:45:42.257Z,101391.00
2022-10-18T08:50:44.223Z,101380.94
2022-10-18T08:56:05.072Z,101397.72
2022-10-18T09:01:31.482Z,101392.59
2022-10-18T09:06:42.671Z,101394.69
2022-10-18T09:12:05.767Z,101402.41
2022-10-18T09:17:22.773Z,101398.34
2022-10-18T09:22:53.099Z,101407.31
2022-10-18T09:28:08.424Z,101410.25
2022-10-18T09:33:35.667Z,101407.47
2022-10-18T09:38:49.564Z,101408.72
2022-10-18T09:44:15.566Z,101404.13
2022-10-18T09:49:27.131Z,101399.13
2022-10-18T09:54:36.634Z,101399.34
2022-10-18T09:59:42.437Z,101405.22
2022-10-18T10:04:44.144Z,101413.78
2022-10-18T10:09:56.828Z,101404.94
2022-10-18T10:15:20.984Z,101409.75
2022-10-18T10:20:44.278Z,101403.97
2022-10-18T10:25:55.288Z,101401.22
2022-10-18T10:31:30.929Z,101392.72
2022-10-18T10:36:33.594Z,101379.59
2022-10-18T10:41:35.338Z,101396.50
2022-10-18T10:46:36.955Z,101403.34
2022-10-18T10:51:40.151Z,101406.00
2022-10-18T10:57:22.577Z,101397.91
2022-10-18T11:02:32.188Z,101398.56
2022-10-18T11:07:40.954Z,101399.41
2022-10-18T11:12:48.529Z,101401.59
2022-10-18T11:18:08.206Z,101406.97
2022-10-18T11:23:15.422Z,101397.66
2022-10-18T11:28:38.143Z,101399.53
2022-10-18T11:34:09.822Z,101395.09
2022-10-18T11:39:26.633Z,101391.00
2022-10-18T11:44:42.485Z,101382.41
2022-10-18T11:49:50.062Z,101374.53
2022-10-18T11:55:09.682Z,101365.53
2022-10-18T12:00:29.120Z,101363.56
2022-10-18T12:05:33.373Z,101352.34
2022-10-18T12:10:59.950Z,101355.50
2022-10-18T12:15:58.152Z,101355.31
2022-10-18T12:21:01.781Z,101344.91
2022-10-18T12:26:06.767Z,101352.13
2022-10-18T12:31:23.354Z,101347.66
2022-10-18T12:36:37.392Z,101343.25
2022-10-18T12:41:38.987Z,101343.41
2022-10-18T12:46:55.983Z,101343.84
2022-10-18T12:52:07.541Z,101339.81
2022-10-18T12:57:23.519Z,101334.13
2022-10-18T13:02:28.191Z,101335.91
2022-10-18T13:07:40.849Z,101325.69
2022-10-18T13:12:45.052Z,101323.31
2022-10-18T13:18:19.586Z,101317.50
2022-10-18T13:23:53.977Z,101318.28
2022-10-18T13:29:13.882Z,101311.56
2022-10-18T13:34:24.500Z,101322.47
2022-10-18T13:39:27.081Z,101321.50
2022-10-18T13:44:37.706Z,101320.41
2022-10-18T13:49:39.235Z,101320.75
2022-10-18T13:54:55.696Z,101338.41
2022-10-18T14:00:33.700Z,101331.13
2022-10-18T14:05:56.968Z,101333.31
2022-10-18T14:11:06.155Z,101339.91
2022-10-18T14:16:32.600Z,101336.84
2022-10-18T14:21:38.384Z,101338.31
2022-10-18T14:31:54.417Z,101330.59
2022-10-18T14:36:55.909Z,101336.13
2022-10-18T14:41:58.313Z,101346.28
2022-10-18T14:47:20.641Z,101343.38
2022-10-18T14:52:35.721Z,101342.00
2022-10-18T14:57:37.711Z,101336.66
2022-10-18T15:02:39.680Z,101348.88
2022-10-18T15:07:41.520Z,101337.72
2022-10-18T15:13:08.042Z,101342.84
2022-10-18T15:18:07.064Z,101336.50
2022-10-18T15:23:27.002Z,101338.56
2022-10-18T15:28:36.277Z,101338.94
2022-10-18T15:33:37.911Z,101336.50
2022-10-18T15:38:39.634Z,101336.09
2022-10-18T15:43:41.144Z,101338.56
2022-10-18T15:48:42.631Z,101341.19
2022-10-18T15:53:50.485Z,101345.28
2022-10-18T15:58:52.341Z,101350.16
2022-10-18T16:08:56.493Z,101354.78
2022-10-18T16:14:00.403Z,101353.41
2022-10-18T16:19:02.636Z,101354.00
2022-10-18T16:24:05.153Z,101357.22
2022-10-18T16:29:07.643Z,101358.09
2022-10-18T16:34:11.781Z,101361.91
2022-10-18T16:39:17.724Z,101369.63
2022-10-18T16:44:19.422Z,101377.81
2022-10-18T16:49:24.089Z,101373.81
2022-10-18T16:54:26.011Z,101380.91
2022-10-18T16:59:30.153Z,101369.13
2022-10-18T17:04:31.608Z,101378.09
2022-10-18T17:09:34.897Z,101376.56
2022-10-18T17:14:36.959Z,101387.72
2022-10-18T17:19:38.428Z,101387.06
2022-10-18T17:24:39.830Z,101392.16
2022-10-18T17:29:41.252Z,101389.63
2022-10-18T17:34:42.732Z,101396.72
2022-10-18T17:39:44.189Z,101402.22
2022-10-18T17:44:46.183Z,101408.72
2022-10-18T17:49:47.836Z,101414.97
2022-10-18T17:54:49.295Z,101421.53
2022-10-18T17:59:50.726Z,101415.47
2022-10-18T18:04:54.269Z,101412.88
2022-10-18T18:09:56.579Z,101421.06
2022-10-18T18:14:58.054Z,101421.44
2022-10-18T18:19:59.563Z,101421.66
2022-10-18T18:25:00.957Z,101420.91
2022-10-18T18:30:02.428Z,101420.31
2022-10-18T18:35:04.162Z,101417.09
2022-10-18T18:40:06.168Z,101421.44
2022-10-18T18:45:07.774Z,101415.28
2022-10-18T18:50:09.419Z,101416.06
2022-10-18T18:55:10.976Z,101423.03
2022-10-18T19:00:13.353Z,101420.72
2022-10-18T19:05:14.851Z,101415.88
2022-10-18T19:10:16.322Z,101412.09
2022-10-18T19:15:19.267Z,101408.88
2022-10-18T19:20:20.838Z,101405.69
2022-10-18T19:25:24.786Z,101407.75
2022-10-18T19:30:28.413Z,101408.03
2022-10-18T19:35:29.898Z,101405.59
2022-10-18T19:40:31.311Z,101410.84
2022-10-18T19:45:32.750Z,101403.38
2022-10-18T19:50:35.032Z,101408.97
2022-10-18T19:55:36.555Z,101405.06
2022-10-18T20:00:38.140Z,101407.78
2022-10-18T20:05:39.572Z,101400.28
2022-10-18T20:10:41.044Z,101408.19
2022-10-18T20:15:42.707Z,101402.41
2022-10-18T20:20:47.328Z,101396.56
2022-10-18T20:26:00.507Z,101390.16
2022-10-18T20:31:07.205Z,101400.13
2022-10-18T20:36:11.823Z,101398.09
2022-10-18T20:41:19.439Z,101390.00
2022-10-18T20:46:22.172Z,101386.28
2022-10-18T20:51:23.653Z,101383.31
2022-10-18T20:56:28.724Z,101386.41
2022-10-18T21:01:31.856Z,101387.84
2022-10-18T21:06:36.179Z,101381.53
2022-10-18T21:11:40.236Z,101384.50
2022-10-18T21:16:43.344Z,101390.88
2022-10-18T21:21:47.041Z,101392.00
2022-10-18T21:26:49.061Z,101390.41
2022-10-18T21:31:55.137Z,101382.59
2022-10-18T21:36:56.543Z,101379.97
2022-10-18T21:41:58.002Z,101381.00
2022-10-18T21:46:59.423Z,101378.72
2022-10-18T21:52:03.713Z,101387.53
2022-10-18T21:57:05.165Z,101373.16
2022-10-18T22:02:06.634Z,101380.19
2022-10-18T22:07:08.139Z,101374.59
2022-10-18T22:12:10.932Z,101368.94
2022-10-18T22:17:12.532Z,101367.94
2022-10-18T22:22:13.997Z,101364.16
2022-10-18T22:27:15.435Z,101352.00
2022-10-18T22:32:16.840Z,101348.72
2022-10-18T22:37:18.274Z,101357.41
2022-10-18T22:42:19.671Z,101341.53
2022-10-18T22:47:21.188Z,101338.53
2022-10-18T22:52:22.648Z,101344.06
2022-10-18T22:57:24.062Z,101338.34
2022-10-18T23:02:25.491Z,101333.44
2022-10-18T23:07:26.898Z,101331.09
2022-10-18T23:12:28.317Z,101337.31
2022-10-18T23:17:29.890Z,101327.16
2022-10-18T23:22:31.798Z,101341.91
2022-10-18T23:27:33.649Z,101339.75
2022-10-18T23:32:35.929Z,101335.09
2022-10-18T23:37:37.773Z,101346.53
2022-10-18T23:42:39.519Z,101340.38
2022-10-18T23:47:40.953Z,101338.88
2022-10-18T23:52:42.396Z,101338.41
2022-10-18T23:57:43.860Z,101336.91
